createdAt,value
2019-03-22T00:01:00.405Z,98405.84
2019-03-22T00:03:28.023Z,98409.72
2019-03-22T00:05:55.453Z,98410.99
2019-03-22T00:08:22.861Z,98407.86
2019-03-22T00:10:50.252Z,98415.65
2019-03-22T00:13:17.658Z,98410.81
2019-03-22T00:15:45.112Z,98409.41
2019-03-22T00:18:12.566Z,98409.64
2019-03-22T00:20:40.127Z,98416.09
2019-03-22T00:23:08.038Z,98406.94
2019-03-22T00:25:35.882Z,98408.23
2019-03-22T00:28:03.310Z,98415.77
2019-03-22T00:30:30.928Z,98407.26
2019-03-22T00:32:58.329Z,98406.58
2019-03-22T00:35:25.770Z,98408.01
2019-03-22T00:37:54.135Z,98409.77
2019-03-22T00:40:21.549Z,98405.95
2019-03-22T00:42:48.971Z,98400.05
2019-03-22T00:45:16.374Z,98398.20
2019-03-22T00:47:43.805Z,98405.11
2019-03-22T00:50:11.198Z,98405.89
2019-03-22T00:52:38.617Z,98406.77
2019-03-22T00:55:06.006Z,98406.51
2019-03-22T00:57:33.424Z,98409.51
2019-03-22T01:00:00.985Z,98406.58
2019-03-22T01:02:28.553Z,98398.85
2019-03-22T01:04:55.934Z,98403.11
2019-03-22T01:07:23.341Z,98403.27
2019-03-22T01:09:50.745Z,98403.00
2019-03-22T01:12:18.161Z,98400.19
2019-03-22T01:14:45.638Z,98396.55
2019-03-22T01:17:13.158Z,98400.77
2019-03-22T01:19:40.624Z,98400.41
2019-03-22T01:22:08.063Z,98398.19
2019-03-22T01:24:35.484Z,98399.07
2019-03-22T01:27:03.042Z,98394.91
2019-03-22T01:29:30.452Z,98396.56
2019-03-22T01:31:57.867Z,98392.09
2019-03-22T01:34:25.343Z,98391.91
2019-03-22T01:36:52.781Z,98394.59
2019-03-22T01:39:20.187Z,98394.70
2019-03-22T01:41:47.600Z,98386.52
2019-03-22T01:44:15.000Z,98379.30
2019-03-22T01:46:42.578Z,98376.41
2019-03-22T01:49:10.033Z,98389.21
2019-03-22T01:51:37.642Z,98386.08
2019-03-22T01:54:06.014Z,98389.60
2019-03-22T01:56:33.427Z,98387.53
2019-03-22T01:59:00.838Z,98385.43
2019-03-22T02:01:28.356Z,98386.58
2019-03-22T02:03:55.794Z,98388.41
2019-03-22T02:06:23.229Z,98381.85
2019-03-22T02:08:50.642Z,98384.83
2019-03-22T02:11:18.183Z,98390.34
2019-03-22T02:13:45.955Z,98382.89
2019-03-22T02:16:13.348Z,98391.59
2019-03-22T02:18:40.790Z,98385.07
2019-03-22T02:21:08.419Z,98381.38
2019-03-22T02:23:35.795Z,98384.75
2019-03-22T02:26:03.209Z,98379.47
2019-03-22T02:28:30.619Z,98377.86
2019-03-22T02:30:58.182Z,98378.15
2019-03-22T02:33:25.711Z,98378.91
2019-03-22T02:35:53.109Z,98380.31
2019-03-22T02:38:20.520Z,98376.05
2019-03-22T02:40:47.930Z,98379.77
2019-03-22T02:43:15.348Z,98382.09
2019-03-22T02:45:43.981Z,98377.91
2019-03-22T02:48:11.389Z,98381.72
2019-03-22T02:50:38.837Z,98378.96
2019-03-22T02:53:07.018Z,98382.71
2019-03-22T02:55:34.553Z,98374.27
2019-03-22T02:58:01.988Z,98374.20
2019-03-22T03:00:29.406Z,98371.92
2019-03-22T03:02:56.801Z,98370.87
2019-03-22T03:05:24.219Z,98373.59
2019-03-22T03:07:51.623Z,98368.84
2019-03-22T03:10:19.258Z,98367.20
2019-03-22T03:12:46.821Z,98369.30
2019-03-22T03:15:14.215Z,98364.72
2019-03-22T03:17:41.807Z,98369.37
2019-03-22T03:20:09.861Z,98376.58
2019-03-22T03:22:37.311Z,98369.63
2019-03-22T03:25:06.183Z,98363.95
2019-03-22T03:27:33.582Z,98361.20
2019-03-22T03:30:01.065Z,98368.34
2019-03-22T03:32:28.724Z,98359.91
2019-03-22T03:34:56.138Z,98368.45
2019-03-22T03:37:23.523Z,98374.20
2019-03-22T03:39:50.980Z,98369.37
2019-03-22T03:42:18.995Z,98373.88
2019-03-22T03:44:46.382Z,98377.30
2019-03-22T03:47:13.869Z,98380.33
2019-03-22T03:49:41.265Z,98382.49
2019-03-22T03:52:08.846Z,98376.02
2019-03-22T03:54:36.715Z,98375.31
2019-03-22T03:57:04.313Z,98375.11
2019-03-22T03:59:31.720Z,98367.78
2019-03-22T04:01:59.542Z,98370.27
2019-03-22T04:04:27.029Z,98375.32
2019-03-22T04:06:54.359Z,98371.38
2019-03-22T04:09:21.875Z,98370.59
2019-03-22T04:11:49.307Z,98366.32
2019-03-22T04:14:16.763Z,98369.94
2019-03-22T04:16:44.171Z,98374.06
2019-03-22T04:19:11.581Z,98378.05
2019-03-22T04:21:39.069Z,98378.12
2019-03-22T04:24:06.654Z,98380.74
2019-03-22T04:26:34.085Z,98378.09
2019-03-22T04:29:07.645Z,98385.05
2019-03-22T04:31:28.955Z,98387.68
2019-03-22T04:33:56.381Z,98394.36
2019-03-22T04:36:24.539Z,98398.47
2019-03-22T04:38:51.932Z,98398.00
2019-03-22T04:41:19.334Z,98397.44
2019-03-22T04:43:46.720Z,98397.09
2019-03-22T04:46:14.146Z,98400.16
2019-03-22T04:48:42.633Z,98397.22
2019-03-22T04:51:10.034Z,98402.31
2019-03-22T04:53:37.532Z,98401.44
2019-03-22T04:56:04.978Z,98401.47
2019-03-22T04:58:32.409Z,98409.18
2019-03-22T05:00:59.889Z,98410.88
2019-03-22T05:03:27.376Z,98409.08
2019-03-22T05:05:54.771Z,98412.12
2019-03-22T05:08:22.176Z,98418.52
2019-03-22T05:10:49.576Z,98418.19
2019-03-22T05:13:16.980Z,98428.77
2019-03-22T05:15:44.423Z,98427.34
2019-03-22T05:18:11.810Z,98432.68
2019-03-22T05:20:39.206Z,98429.23
2019-03-22T05:23:06.634Z,98434.67
2019-03-22T05:25:34.090Z,98430.19
2019-03-22T05:28:01.482Z,98438.04
2019-03-22T05:33:31.054Z,98436.64
2019-03-22T05:35:58.489Z,98439.23
2019-03-22T05:38:25.944Z,98439.39
2019-03-22T05:40:53.342Z,98441.34
2019-03-22T05:43:20.759Z,98442.25
2019-03-22T05:45:48.175Z,98454.31
2019-03-22T05:48:15.637Z,98451.94
2019-03-22T05:50:43.039Z,98450.58
2019-03-22T05:53:10.505Z,98451.90
2019-03-22T05:55:37.899Z,98460.50
2019-03-22T05:58:05.302Z,98455.89
2019-03-22T06:00:32.729Z,98458.04
2019-03-22T06:03:00.133Z,98463.30
2019-03-22T06:05:27.567Z,98467.66
2019-03-22T06:07:54.967Z,98474.06
2019-03-22T06:10:22.431Z,98469.77
2019-03-22T06:12:50.052Z,98473.16
2019-03-22T06:15:17.448Z,98474.17
2019-03-22T06:17:51.592Z,98478.29
2019-03-22T06:20:12.330Z,98479.28
2019-03-22T06:22:39.711Z,98481.56
2019-03-22T06:25:07.162Z,98486.02
2019-03-22T06:27:34.574Z,98485.39
2019-03-22T06:30:01.968Z,98487.89
2019-03-22T06:32:29.413Z,98486.53
2019-03-22T06:34:56.825Z,98490.48
2019-03-22T06:37:24.239Z,98486.75
2019-03-22T06:39:51.653Z,98479.84
2019-03-22T06:42:19.871Z,98488.14
2019-03-22T06:44:47.457Z,98488.14
2019-03-22T06:47:14.899Z,98493.72
2019-03-22T06:49:42.334Z,98497.05
2019-03-22T06:52:09.952Z,98490.56
2019-03-22T06:54:37.446Z,98491.61
2019-03-22T06:57:04.875Z,98497.41
2019-03-22T06:59:32.324Z,98496.19
2019-03-22T07:01:59.756Z,98492.28
2019-03-22T07:04:27.434Z,98486.86
2019-03-22T07:06:54.902Z,98493.77
2019-03-22T07:09:22.309Z,98495.67
2019-03-22T07:11:49.919Z,98495.14
2019-03-22T07:14:17.325Z,98495.39
2019-03-22T07:16:44.833Z,98491.27
2019-03-22T07:19:12.233Z,98501.25
2019-03-22T07:21:39.670Z,98491.60
2019-03-22T07:24:07.232Z,98491.25
2019-03-22T07:26:34.646Z,98491.72
2019-03-22T07:29:01.650Z,98485.92
2019-03-22T07:31:28.598Z,98488.50
2019-03-22T07:33:55.548Z,98490.23
2019-03-22T07:36:23.525Z,98491.98
2019-03-22T07:38:51.778Z,98492.66
2019-03-22T07:41:18.712Z,98488.59
2019-03-22T07:43:45.950Z,98486.06
2019-03-22T07:46:13.959Z,98484.33
2019-03-22T07:48:42.443Z,98485.05
2019-03-22T07:51:09.425Z,98476.94
2019-03-22T07:53:36.841Z,98472.56
2019-03-22T07:56:03.999Z,98472.75
2019-03-22T07:58:30.946Z,98468.25
2019-03-22T08:00:58.109Z,98468.72
2019-03-22T08:03:26.030Z,98473.08
2019-03-22T08:05:53.125Z,98465.52
2019-03-22T08:08:20.084Z,98472.16
2019-03-22T08:10:47.185Z,98465.96
2019-03-22T08:13:15.376Z,98464.44
2019-03-22T08:15:42.471Z,98453.51
2019-03-22T08:18:09.415Z,98457.99
2019-03-22T08:20:38.666Z,98456.34
2019-03-22T08:23:03.798Z,98450.30
2019-03-22T08:25:32.445Z,98454.48
2019-03-22T08:27:57.675Z,98460.33
2019-03-22T08:30:24.616Z,98466.40
2019-03-22T08:32:51.556Z,98461.17
2019-03-22T08:35:18.642Z,98456.12
2019-03-22T08:37:52.502Z,98458.75
2019-03-22T08:40:12.606Z,98459.81
2019-03-22T08:42:40.292Z,98453.64
2019-03-22T08:45:07.711Z,98459.83
2019-03-22T08:47:35.147Z,98450.02
2019-03-22T08:50:02.171Z,98451.95
2019-03-22T08:52:29.635Z,98446.75
2019-03-22T08:54:56.991Z,98446.12
2019-03-22T08:57:25.157Z,98448.64
2019-03-22T08:59:51.851Z,98444.50
2019-03-22T09:02:19.278Z,98446.27
2019-03-22T09:04:48.195Z,98440.58
2019-03-22T09:07:15.860Z,98437.67
2019-03-22T09:09:43.282Z,98441.69
2019-03-22T09:12:10.783Z,98439.22
2019-03-22T09:14:38.322Z,98437.78
2019-03-22T09:17:05.772Z,98435.22
2019-03-22T09:19:33.198Z,98426.09
2019-03-22T09:22:00.718Z,98424.73
2019-03-22T09:24:38.488Z,98428.52
2019-03-22T09:26:55.577Z,98417.71
2019-03-22T09:29:23.024Z,98419.98
2019-03-22T09:31:53.494Z,98417.34
2019-03-22T09:34:17.741Z,98414.12
2019-03-22T09:36:44.959Z,98406.86
2019-03-22T09:39:12.365Z,98409.47
2019-03-22T09:41:39.839Z,98407.58
2019-03-22T09:44:07.289Z,98403.75
2019-03-22T09:46:34.687Z,98403.36
2019-03-22T09:49:02.836Z,98403.00
2019-03-22T09:51:30.244Z,98399.17
2019-03-22T09:53:57.178Z,98402.34
2019-03-22T09:56:24.216Z,98398.60
2019-03-22T09:58:51.168Z,98395.61
2019-03-22T10:01:23.550Z,98399.06
2019-03-22T10:03:46.049Z,98394.66
2019-03-22T10:06:13.228Z,98399.69
2019-03-22T10:08:40.235Z,98396.47
2019-03-22T10:11:07.811Z,98406.08
2019-03-22T10:13:34.781Z,98396.32
2019-03-22T10:16:02.269Z,98397.49
2019-03-22T10:18:29.188Z,98396.82
2019-03-22T10:20:56.721Z,98386.39
2019-03-22T10:23:23.889Z,98389.34
2019-03-22T10:25:51.020Z,98382.42
2019-03-22T10:28:18.487Z,98376.23
2019-03-22T10:30:45.719Z,98370.30
2019-03-22T10:33:22.740Z,98368.75
2019-03-22T10:35:40.642Z,98366.66
2019-03-22T10:38:16.001Z,98365.64
2019-03-22T10:40:35.562Z,98362.91
2019-03-22T10:43:03.976Z,98359.49
2019-03-22T10:45:31.517Z,98355.83
2019-03-22T10:47:58.966Z,98356.14
2019-03-22T10:50:26.446Z,98357.44
2019-03-22T10:52:55.062Z,98352.02
2019-03-22T10:55:29.783Z,98354.06
2019-03-22T10:57:50.143Z,98346.77
2019-03-22T11:00:17.576Z,98348.27
2019-03-22T11:02:45.224Z,98347.44
2019-03-22T11:05:12.644Z,98343.39
2019-03-22T11:07:40.077Z,98343.72
2019-03-22T11:10:07.502Z,98342.39
2019-03-22T11:12:34.469Z,98345.28
2019-03-22T11:15:02.003Z,98338.84
2019-03-22T11:17:29.499Z,98332.17
2019-03-22T11:19:57.604Z,98332.75
2019-03-22T11:22:24.721Z,98334.17
2019-03-22T11:24:51.661Z,98319.67
2019-03-22T11:27:19.147Z,98323.17
2019-03-22T11:29:46.121Z,98322.98
2019-03-22T11:32:13.159Z,98330.56
2019-03-22T11:34:40.221Z,98322.88
2019-03-22T11:37:07.863Z,98318.11
2019-03-22T11:39:34.285Z,98311.55
2019-03-22T11:42:01.296Z,98308.66
2019-03-22T11:44:29.042Z,98304.69
2019-03-22T11:46:56.252Z,98301.13
2019-03-22T11:49:23.461Z,98298.33
2019-03-22T11:51:50.407Z,98302.20
2019-03-22T11:54:18.915Z,98298.89
2019-03-22T11:56:46.471Z,98293.37
2019-03-22T11:59:13.888Z,98289.29
2019-03-22T12:01:41.313Z,98287.31
2019-03-22T12:04:08.894Z,98288.20
2019-03-22T12:06:36.324Z,98278.97
2019-03-22T12:09:03.295Z,98276.52
2019-03-22T12:11:30.255Z,98274.45
2019-03-22T12:13:57.294Z,98283.53
2019-03-22T12:16:24.268Z,98286.86
2019-03-22T12:18:51.214Z,98273.77
2019-03-22T12:21:18.324Z,98270.90
2019-03-22T12:23:45.291Z,98266.52
2019-03-22T12:26:12.244Z,98260.60
2019-03-22T12:28:39.191Z,98259.67
2019-03-22T12:31:06.621Z,98255.18
2019-03-22T12:33:34.109Z,98249.56
2019-03-22T12:36:01.528Z,98244.55
2019-03-22T12:38:29.165Z,98241.59
2019-03-22T12:40:56.590Z,98235.59
2019-03-22T12:43:24.014Z,98232.24
2019-03-22T12:45:51.475Z,98220.85
2019-03-22T12:48:18.517Z,98224.45
2019-03-22T12:50:45.669Z,98222.69
2019-03-22T12:53:12.666Z,98218.52
2019-03-22T12:55:39.652Z,98217.23
2019-03-22T12:58:06.617Z,98209.72
2019-03-22T13:00:33.860Z,98207.80
2019-03-22T13:03:00.860Z,98202.34
2019-03-22T13:05:27.994Z,98201.03
2019-03-22T13:07:55.001Z,98192.89
2019-03-22T13:10:24.347Z,98191.70
2019-03-22T13:12:51.758Z,98193.81
2019-03-22T13:15:19.172Z,98188.45
2019-03-22T13:17:46.198Z,98188.06
2019-03-22T13:20:13.173Z,98187.50
2019-03-22T13:22:40.123Z,98177.43
2019-03-22T13:25:07.544Z,98179.94
2019-03-22T13:27:34.947Z,98179.08
2019-03-22T13:30:02.539Z,98182.19
2019-03-22T13:32:29.957Z,98169.48
2019-03-22T13:34:57.542Z,98171.31
2019-03-22T13:37:24.982Z,98174.00
2019-03-22T13:39:52.402Z,98170.13
2019-03-22T13:42:20.636Z,98163.40
2019-03-22T13:44:48.200Z,98159.08
2019-03-22T13:47:15.595Z,98160.59
2019-03-22T13:49:43.665Z,98160.48
2019-03-22T13:52:11.106Z,98163.23
2019-03-22T13:54:38.593Z,98154.14
2019-03-22T13:57:06.169Z,98155.27
2019-03-22T13:59:33.875Z,98152.12
2019-03-22T14:02:01.305Z,98148.28
2019-03-22T14:04:28.715Z,98150.78
2019-03-22T14:06:56.183Z,98147.01
2019-03-22T14:09:23.837Z,98150.42
2019-03-22T14:11:51.271Z,98146.39
2019-03-22T14:14:18.712Z,98141.11
2019-03-22T14:16:46.289Z,98141.05
2019-03-22T14:19:13.849Z,98140.73
2019-03-22T14:21:41.333Z,98132.03
2019-03-22T14:24:08.747Z,98132.64
2019-03-22T14:26:36.521Z,98135.23
2019-03-22T14:29:03.494Z,98133.98
2019-03-22T14:31:30.432Z,98127.94
2019-03-22T14:33:57.456Z,98127.78
2019-03-22T14:36:24.426Z,98131.91
2019-03-22T14:38:52.695Z,98129.11
2019-03-22T14:41:19.638Z,98130.33
2019-03-22T14:43:46.586Z,98126.34
2019-03-22T14:46:13.574Z,98122.30
2019-03-22T14:48:40.578Z,98123.49
2019-03-22T14:51:07.609Z,98133.41
2019-03-22T14:53:34.558Z,98125.58
2019-03-22T14:56:01.542Z,98124.75
2019-03-22T14:58:28.612Z,98125.78
2019-03-22T15:00:55.582Z,98117.17
2019-03-22T15:03:24.383Z,98120.16
2019-03-22T15:05:51.399Z,98113.39
2019-03-22T15:08:18.361Z,98111.05
2019-03-22T15:10:45.322Z,98110.08
2019-03-22T15:13:12.270Z,98109.30
2019-03-22T15:15:51.177Z,98111.81
2019-03-22T15:18:34.830Z,98106.62
2019-03-22T15:21:07.430Z,98102.54
2019-03-22T15:23:46.241Z,98104.41
2019-03-22T15:26:18.798Z,98103.06
2019-03-22T15:28:52.203Z,98098.58
2019-03-22T15:31:24.807Z,98092.30
2019-03-22T15:34:05.763Z,98094.02
2019-03-22T15:36:49.477Z,98095.18
2019-03-22T15:39:22.504Z,98096.88
2019-03-22T15:41:49.342Z,98096.02
2019-03-22T15:44:16.453Z,98091.66
2019-03-22T15:46:43.414Z,98082.56
2019-03-22T15:49:10.660Z,98083.91
2019-03-22T15:51:37.616Z,98077.39
2019-03-22T15:54:04.632Z,98072.47
2019-03-22T15:56:31.618Z,98076.81
2019-03-22T15:58:58.834Z,98075.25
2019-03-22T16:01:25.794Z,98075.95
2019-03-22T16:03:52.760Z,98076.26
2019-03-22T16:06:19.826Z,98069.11
2019-03-22T16:08:46.870Z,98069.11
2019-03-22T16:11:13.866Z,98069.73
2019-03-22T16:13:40.859Z,98070.70
2019-03-22T16:16:07.883Z,98061.93
2019-03-22T16:18:34.879Z,98070.15
2019-03-22T16:21:01.879Z,98064.58
2019-03-22T16:23:28.875Z,98069.60
2019-03-22T16:25:55.835Z,98064.20
2019-03-22T16:28:22.884Z,98069.86
2019-03-22T16:30:49.890Z,98068.10
2019-03-22T16:33:16.941Z,98065.87
2019-03-22T16:35:43.902Z,98068.88
2019-03-22T16:38:10.887Z,98070.30
2019-03-22T16:40:37.829Z,98070.80
2019-03-22T16:43:04.834Z,98070.17
2019-03-22T16:45:32.738Z,98069.60
2019-03-22T16:47:59.705Z,98071.37
2019-03-22T16:50:26.669Z,98070.16
2019-03-22T16:52:53.789Z,98065.40
2019-03-22T16:55:20.847Z,98070.70
2019-03-22T16:57:47.788Z,98068.80
2019-03-22T17:00:14.866Z,98066.81
2019-03-22T17:02:42.263Z,98057.06
2019-03-22T17:05:09.826Z,98059.52
2019-03-22T17:07:37.236Z,98059.45
2019-03-22T17:10:05.391Z,98057.27
2019-03-22T17:12:32.983Z,98065.07
2019-03-22T17:15:00.580Z,98069.06
2019-03-22T17:17:28.006Z,98067.42
2019-03-22T17:19:55.463Z,98071.27
2019-03-22T17:22:22.873Z,98064.77
2019-03-22T17:24:50.328Z,98075.03
2019-03-22T17:27:17.938Z,98069.82
2019-03-22T17:29:45.570Z,98072.27
2019-03-22T17:32:13.122Z,98064.19
2019-03-22T17:41:24.653Z,98071.00
2019-03-22T17:43:52.093Z,98072.20
2019-03-22T17:46:19.494Z,98068.33
2019-03-22T17:48:46.545Z,98070.30
2019-03-22T17:51:13.529Z,98072.78
2019-03-22T17:53:40.557Z,98075.19
2019-03-22T17:56:08.078Z,98082.36
2019-03-22T17:58:35.487Z,98077.68
2019-03-22T18:01:03.011Z,98075.88
2019-03-22T18:03:30.576Z,98080.98
2019-03-22T18:05:57.982Z,98080.52
2019-03-22T18:08:25.399Z,98087.89
2019-03-22T18:10:52.831Z,98092.70
2019-03-22T18:13:20.499Z,98093.11
2019-03-22T18:15:47.985Z,98086.63
2019-03-22T18:18:15.409Z,98096.19
2019-03-22T18:20:43.010Z,98092.89
2019-03-22T18:23:10.422Z,98091.58
2019-03-22T18:25:37.902Z,98096.72
2019-03-22T18:28:05.328Z,98096.80
2019-03-22T18:30:32.786Z,98097.20
2019-03-22T18:33:00.356Z,98104.83
2019-03-22T18:35:27.802Z,98099.64
2019-03-22T18:37:55.191Z,98097.36
2019-03-22T18:40:23.532Z,98095.48
2019-03-22T18:42:50.972Z,98098.34
2019-03-22T18:45:18.386Z,98104.39
2019-03-22T18:47:45.862Z,98101.95
2019-03-22T18:50:13.947Z,98105.33
2019-03-22T18:52:41.346Z,98099.31
2019-03-22T18:55:08.895Z,98102.76
2019-03-22T18:57:36.353Z,98100.14
2019-03-22T19:00:08.554Z,98104.02
2019-03-22T19:02:36.110Z,98100.83
2019-03-22T19:05:03.524Z,98109.34
2019-03-22T19:07:30.939Z,98111.06
2019-03-22T19:09:58.760Z,98108.70
2019-03-22T19:12:26.491Z,98113.97
2019-03-22T19:14:54.284Z,98119.52
2019-03-22T19:17:21.951Z,98119.94
2019-03-22T19:19:49.375Z,98126.69
2019-03-22T19:22:16.821Z,98126.04
2019-03-22T19:24:44.262Z,98131.61
2019-03-22T19:27:11.723Z,98130.95
2019-03-22T19:29:39.235Z,98133.16
2019-03-22T19:32:13.440Z,98134.36
2019-03-22T19:34:34.284Z,98139.38
2019-03-22T19:37:01.689Z,98138.64
2019-03-22T19:39:29.183Z,98143.01
2019-03-22T19:41:56.615Z,98141.34
2019-03-22T19:44:24.069Z,98138.68
2019-03-22T19:46:51.526Z,98141.49
2019-03-22T19:49:18.962Z,98142.25
2019-03-22T19:51:46.383Z,98141.84
2019-03-22T19:54:13.788Z,98142.02
2019-03-22T19:56:41.263Z,98148.59
2019-03-22T19:59:08.775Z,98145.88
2019-03-22T20:01:36.306Z,98147.33
2019-03-22T20:04:03.779Z,98142.69
2019-03-22T20:06:31.194Z,98150.34
2019-03-22T20:08:58.727Z,98147.82
2019-03-22T20:11:26.263Z,98148.54
2019-03-22T20:13:53.881Z,98151.03
2019-03-22T20:16:21.340Z,98154.50
2019-03-22T20:18:48.747Z,98157.72
2019-03-22T20:21:16.253Z,98159.81
2019-03-22T20:23:53.243Z,98167.00
2019-03-22T20:26:11.089Z,98164.07
2019-03-22T20:28:38.568Z,98163.70
2019-03-22T20:31:06.238Z,98175.78
2019-03-22T20:33:33.900Z,98179.42
2019-03-22T20:36:01.316Z,98175.31
2019-03-22T20:38:28.741Z,98180.52
2019-03-22T20:40:56.158Z,98182.05
2019-03-22T20:43:23.777Z,98189.69
2019-03-22T20:45:51.582Z,98186.80
2019-03-22T20:48:19.405Z,98190.95
2019-03-22T20:50:46.813Z,98190.57
2019-03-22T20:53:14.239Z,98193.36
2019-03-22T20:55:41.667Z,98192.42
2019-03-22T20:58:09.187Z,98193.66
2019-03-22T21:00:36.629Z,98188.53
2019-03-22T21:03:04.185Z,98188.84
2019-03-22T21:05:31.638Z,98191.00
2019-03-22T21:07:59.179Z,98197.59
2019-03-22T21:10:26.620Z,98198.31
2019-03-22T21:12:54.075Z,98200.30
2019-03-22T21:15:24.664Z,98195.73
2019-03-22T21:17:49.905Z,98201.94
2019-03-22T21:20:17.319Z,98206.78
2019-03-22T21:22:44.952Z,98202.85
2019-03-22T21:25:12.418Z,98196.99
2019-03-22T21:27:39.923Z,98196.04
2019-03-22T21:30:08.541Z,98199.97
2019-03-22T21:32:44.676Z,98210.58
2019-03-22T21:35:03.401Z,98204.50
2019-03-22T21:37:30.924Z,98203.38
2019-03-22T21:39:58.327Z,98208.84
2019-03-22T21:42:26.340Z,98213.19
2019-03-22T21:44:53.734Z,98210.98
2019-03-22T21:47:21.590Z,98219.08
2019-03-22T21:49:49.003Z,98213.09
2019-03-22T21:52:16.488Z,98217.34
2019-03-22T21:54:43.887Z,98218.70
2019-03-22T21:57:11.286Z,98213.51
2019-03-22T21:59:39.559Z,98219.96
2019-03-22T22:02:06.971Z,98217.81
2019-03-22T22:04:34.491Z,98214.42
2019-03-22T22:07:01.883Z,98224.27
2019-03-22T22:09:29.302Z,98225.78
2019-03-22T22:11:56.745Z,98226.20
2019-03-22T22:14:24.194Z,98235.02
2019-03-22T22:16:51.633Z,98230.45
2019-03-22T22:19:19.435Z,98233.23
2019-03-22T22:21:46.995Z,98229.19
2019-03-22T22:24:14.489Z,98235.39
2019-03-22T22:26:41.885Z,98234.03
2019-03-22T22:29:09.625Z,98235.50
2019-03-22T22:31:37.048Z,98234.97
2019-03-22T22:34:04.541Z,98236.39
2019-03-22T22:36:32.044Z,98235.53
2019-03-22T22:39:00.231Z,98233.02
2019-03-22T22:41:27.667Z,98225.02
2019-03-22T22:43:55.101Z,98227.45
2019-03-22T22:46:22.557Z,98229.53
2019-03-22T22:48:49.984Z,98221.88
2019-03-22T22:51:17.379Z,98225.63
2019-03-22T22:53:44.836Z,98221.89
2019-03-22T22:56:12.353Z,98225.92
2019-03-22T22:58:39.759Z,98224.05
2019-03-22T23:01:08.017Z,98227.25
2019-03-22T23:03:35.603Z,98222.08
2019-03-22T23:06:09.439Z,98225.61
2019-03-22T23:08:30.419Z,98218.67
2019-03-22T23:10:58.109Z,98216.45
2019-03-22T23:13:26.371Z,98219.58
2019-03-22T23:15:53.866Z,98215.73
2019-03-22T23:18:21.258Z,98215.83
2019-03-22T23:20:48.746Z,98217.98
2019-03-22T23:23:16.172Z,98211.81
2019-03-22T23:25:43.603Z,98210.50
2019-03-22T23:28:11.087Z,98213.76
2019-03-22T23:30:38.555Z,98208.30
2019-03-22T23:33:05.973Z,98211.44
2019-03-22T23:35:33.408Z,98206.54
2019-03-22T23:38:01.540Z,98204.27
2019-03-22T23:40:29.873Z,98203.58
2019-03-22T23:42:57.384Z,98203.91
2019-03-22T23:45:24.834Z,98216.48
2019-03-22T23:47:53.028Z,98218.11
2019-03-22T23:50:19.724Z,98224.42
2019-03-22T23:52:47.123Z,98222.04
2019-03-22T23:55:15.178Z,98223.81
2019-03-22T23:57:42.584Z,98223.52
